createdAt,value
2022-08-19T00:01:56.276Z,66.38
2022-08-19T00:04:28.635Z,66.46
2022-08-19T00:06:55.548Z,66.51
2022-08-19T00:09:24.166Z,66.47
2022-08-19T00:11:52.897Z,66.59
2022-08-19T00:14:21.218Z,66.59
2022-08-19T00:16:49.087Z,66.80
2022-08-19T00:19:16.972Z,67.11
2022-08-19T00:21:43.880Z,67.21
2022-08-19T00:24:13.631Z,67.24
2022-08-19T00:26:42.727Z,67.18
2022-08-19T00:29:13.179Z,67.39
2022-08-19T00:31:42.021Z,67.51
2022-08-19T00:34:09.927Z,67.58
2022-08-19T00:36:37.736Z,67.72
2022-08-19T00:39:04.673Z,67.90
2022-08-19T00:41:31.823Z,67.98
2022-08-19T00:44:12.929Z,67.83
2022-08-19T00:46:43.809Z,68.01
2022-08-19T00:49:21.775Z,68.36
2022-08-19T00:51:53.757Z,68.32
2022-08-19T00:54:26.548Z,68.44
2022-08-19T00:57:00.253Z,68.55
2022-08-19T00:59:58.798Z,68.96
2022-08-19T01:02:17.304Z,68.86
2022-08-19T01:04:44.189Z,69.07
2022-08-19T01:07:14.986Z,69.24
2022-08-19T01:09:45.232Z,69.28
2022-08-19T01:12:12.101Z,69.41
2022-08-19T01:14:40.738Z,69.63
2022-08-19T01:17:12.172Z,69.59
2022-08-19T01:19:43.380Z,69.57
2022-08-19T01:22:33.875Z,69.77
2022-08-19T01:25:02.314Z,69.77
2022-08-19T01:27:44.018Z,70.10
2022-08-19T01:30:35.116Z,70.15
2022-08-19T01:33:05.584Z,70.14
2022-08-19T01:35:32.992Z,70.36
2022-08-19T01:38:08.096Z,70.09
2022-08-19T01:40:40.697Z,70.08
2022-08-19T01:43:08.240Z,70.31
2022-08-19T01:45:36.340Z,70.47
2022-08-19T01:48:04.108Z,70.49
2022-08-19T01:50:33.095Z,70.49
2022-08-19T01:53:07.640Z,70.32
2022-08-19T01:55:42.080Z,70.19
2022-08-19T01:58:28.443Z,70.16
2022-08-19T02:00:58.436Z,70.30
2022-08-19T02:03:25.387Z,70.41
2022-08-19T02:05:59.902Z,70.45
2022-08-19T02:08:28.753Z,70.40
2022-08-19T02:10:56.991Z,70.39
2022-08-19T02:13:27.436Z,70.47
2022-08-19T02:15:54.608Z,70.51
2022-08-19T02:18:21.451Z,70.43
2022-08-19T02:20:55.619Z,70.38
2022-08-19T02:23:22.416Z,70.26
2022-08-19T02:25:49.405Z,70.35
2022-08-19T02:28:18.774Z,70.35
2022-08-19T02:30:48.157Z,70.38
2022-08-19T02:33:15.937Z,70.18
2022-08-19T02:35:47.450Z,70.32
2022-08-19T02:38:27.038Z,70.33
2022-08-19T02:41:06.022Z,70.15
2022-08-19T02:43:37.308Z,70.24
2022-08-19T02:46:21.637Z,70.21
2022-08-19T02:48:54.545Z,70.26
2022-08-19T02:51:23.938Z,70.34
2022-08-19T02:53:51.429Z,70.30
2022-08-19T02:56:20.067Z,70.32
2022-08-19T02:58:48.800Z,70.21
2022-08-19T03:01:29.646Z,70.23
2022-08-19T03:03:59.652Z,70.15
2022-08-19T03:06:27.816Z,70.11
2022-08-19T03:08:55.857Z,70.29
2022-08-19T03:11:30.208Z,70.11
2022-08-19T03:13:58.915Z,69.93
2022-08-19T03:16:29.328Z,70.14
2022-08-19T03:19:02.042Z,70.09
2022-08-19T03:21:32.733Z,70.10
2022-08-19T03:24:07.401Z,70.14
2022-08-19T03:26:38.296Z,70.22
2022-08-19T03:29:06.593Z,70.38
2022-08-19T03:31:44.320Z,70.41
2022-08-19T03:34:18.490Z,70.32
2022-08-19T03:36:47.065Z,70.51
2022-08-19T03:39:15.041Z,70.78
2022-08-19T03:41:46.473Z,70.86
2022-08-19T03:44:20.968Z,70.72
2022-08-19T03:46:53.872Z,70.85
2022-08-19T03:49:28.277Z,70.90
2022-08-19T03:51:58.304Z,70.71
2022-08-19T03:54:27.001Z,70.98
2022-08-19T03:56:56.308Z,70.94
2022-08-19T03:59:30.271Z,70.95
2022-08-19T04:01:59.957Z,70.90
2022-08-19T04:04:29.366Z,71.06
2022-08-19T04:06:57.202Z,71.10
2022-08-19T04:09:24.494Z,71.24
2022-08-19T04:11:55.240Z,71.24
2022-08-19T04:14:29.795Z,71.12
2022-08-19T04:16:56.811Z,70.96
2022-08-19T04:19:23.800Z,71.09
2022-08-19T04:21:53.280Z,70.86
2022-08-19T04:24:22.324Z,70.83
2022-08-19T04:26:49.812Z,70.82
2022-08-19T04:29:25.300Z,70.58
2022-08-19T04:31:54.982Z,70.36
2022-08-19T04:34:25.583Z,70.38
2022-08-19T04:36:56.064Z,70.21
2022-08-19T04:39:48.410Z,69.88
2022-08-19T04:42:37.035Z,69.62
2022-08-19T04:45:12.386Z,69.54
2022-08-19T04:47:48.253Z,69.31
2022-08-19T04:50:27.975Z,69.07
2022-08-19T04:52:56.534Z,68.91
2022-08-19T04:55:26.031Z,68.60
2022-08-19T04:57:54.961Z,68.46
2022-08-19T05:00:22.900Z,68.19
2022-08-19T05:02:49.863Z,67.91
2022-08-19T05:05:17.863Z,67.63
2022-08-19T05:07:44.914Z,67.39
2022-08-19T05:10:12.060Z,67.29
2022-08-19T05:12:39.556Z,66.88
2022-08-19T05:15:08.856Z,66.73
2022-08-19T05:17:38.852Z,66.61
2022-08-19T05:20:27.041Z,66.34
2022-08-19T05:22:54.306Z,65.95
2022-08-19T05:25:21.988Z,65.82
2022-08-19T05:27:49.784Z,65.43
2022-08-19T05:30:17.363Z,65.43
2022-08-19T05:32:44.185Z,65.19
2022-08-19T05:35:12.061Z,64.73
2022-08-19T05:37:42.872Z,64.28
2022-08-19T05:40:11.539Z,64.05
2022-08-19T05:42:38.711Z,63.82
2022-08-19T05:45:07.063Z,63.30
2022-08-19T05:47:33.891Z,63.14
2022-08-19T05:50:02.520Z,62.98
2022-08-19T05:52:29.580Z,62.90
2022-08-19T05:54:57.494Z,62.74
2022-08-19T05:57:25.274Z,62.65
2022-08-19T05:59:58.529Z,62.53
2022-08-19T06:02:28.071Z,62.23
2022-08-19T06:04:55.064Z,62.06
2022-08-19T06:07:22.943Z,61.80
2022-08-19T06:10:00.436Z,61.81
2022-08-19T06:12:34.537Z,61.56
2022-08-19T06:15:12.984Z,61.62
2022-08-19T06:17:40.157Z,61.46
2022-08-19T06:20:12.251Z,61.71
2022-08-19T06:22:40.718Z,61.60
2022-08-19T06:25:09.544Z,61.50
2022-08-19T06:27:42.050Z,61.22
2022-08-19T06:30:15.748Z,61.34
2022-08-19T06:32:43.091Z,61.00
2022-08-19T06:35:10.130Z,60.74
2022-08-19T06:37:40.859Z,60.80
2022-08-19T06:40:12.910Z,60.75
2022-08-19T06:42:40.016Z,60.61
2022-08-19T06:45:15.114Z,60.44
2022-08-19T06:47:46.496Z,60.40
2022-08-19T06:50:15.333Z,60.32
2022-08-19T06:52:42.219Z,60.28
2022-08-19T06:55:09.549Z,60.26
2022-08-19T06:57:36.573Z,60.24
2022-08-19T07:00:12.987Z,60.22
2022-08-19T07:02:48.025Z,60.27
2022-08-19T07:05:23.074Z,60.02
2022-08-19T07:07:50.943Z,59.81
2022-08-19T07:10:19.496Z,59.72
2022-08-19T07:12:46.956Z,59.60
2022-08-19T07:15:13.869Z,59.59
2022-08-19T07:17:42.001Z,59.18
2022-08-19T07:20:10.462Z,59.31
2022-08-19T07:22:39.542Z,59.04
2022-08-19T07:25:09.635Z,58.93
2022-08-19T07:27:37.545Z,59.01
2022-08-19T07:30:11.595Z,58.73
2022-08-19T07:32:40.402Z,58.68
2022-08-19T07:35:09.338Z,58.82
2022-08-19T07:37:38.633Z,58.34
2022-08-19T07:40:08.294Z,58.27
2022-08-19T07:42:35.196Z,58.43
2022-08-19T07:45:02.298Z,58.14
2022-08-19T07:47:48.288Z,58.19
2022-08-19T07:50:19.714Z,57.73
2022-08-19T07:52:49.065Z,57.21
2022-08-19T07:55:41.655Z,57.00
2022-08-19T07:58:08.940Z,56.35
2022-08-19T08:00:36.899Z,56.38
2022-08-19T08:03:03.976Z,56.41
2022-08-19T08:05:49.996Z,56.39
2022-08-19T08:08:32.178Z,56.25
2022-08-19T08:11:00.867Z,55.70
2022-08-19T08:13:28.834Z,55.33
2022-08-19T08:15:57.636Z,55.40
2022-08-19T08:18:27.575Z,55.41
2022-08-19T08:20:56.604Z,55.08
2022-08-19T08:23:27.532Z,54.88
2022-08-19T08:25:58.464Z,54.69
2022-08-19T08:28:30.065Z,54.42
2022-08-19T08:30:58.456Z,54.34
2022-08-19T08:33:32.980Z,54.24
2022-08-19T08:36:16.167Z,54.24
2022-08-19T08:38:47.397Z,53.87
2022-08-19T08:41:31.069Z,53.64
2022-08-19T08:43:58.614Z,53.43
2022-08-19T08:46:46.113Z,53.36
2022-08-19T08:49:34.516Z,53.00
2022-08-19T08:52:10.334Z,52.62
2022-08-19T08:54:48.837Z,52.12
2022-08-19T08:57:53.907Z,51.69
2022-08-19T09:00:32.989Z,51.70
2022-08-19T09:03:04.004Z,51.51
2022-08-19T09:06:18.846Z,50.47
2022-08-19T09:09:04.504Z,50.84
2022-08-19T09:12:02.802Z,50.27
2022-08-19T09:14:50.813Z,50.28
2022-08-19T09:17:31.189Z,49.83
2022-08-19T09:20:11.728Z,49.67
2022-08-19T09:22:45.455Z,49.65
2022-08-19T09:25:24.606Z,49.46
2022-08-19T09:28:02.851Z,49.32
2022-08-19T09:30:37.709Z,48.93
2022-08-19T09:33:05.575Z,48.84
2022-08-19T09:35:49.646Z,48.96
2022-08-19T09:38:21.829Z,48.67
2022-08-19T09:40:49.967Z,48.30
2022-08-19T09:43:33.862Z,47.81
2022-08-19T09:46:06.688Z,47.13
2022-08-19T09:48:34.612Z,46.84
2022-08-19T09:51:16.556Z,46.88
2022-08-19T09:53:46.532Z,46.73
2022-08-19T09:56:14.197Z,46.58
2022-08-19T09:58:41.164Z,45.86
2022-08-19T10:01:09.057Z,45.02
2022-08-19T10:03:37.295Z,45.10
2022-08-19T10:06:05.756Z,44.62
2022-08-19T10:08:49.884Z,44.78
2022-08-19T10:11:27.765Z,43.64
2022-08-19T10:14:03.360Z,43.98
2022-08-19T10:16:30.530Z,43.97
2022-08-19T10:18:58.983Z,43.94
2022-08-19T10:21:32.016Z,43.92
2022-08-19T10:24:04.328Z,43.31
2022-08-19T10:26:37.405Z,42.75
2022-08-19T10:29:05.896Z,42.95
2022-08-19T10:32:00.115Z,42.54
2022-08-19T10:34:28.053Z,42.63
2022-08-19T10:37:01.295Z,42.97
2022-08-19T10:39:32.696Z,43.18
2022-08-19T10:42:13.449Z,42.75
2022-08-19T10:44:41.297Z,42.04
2022-08-19T10:47:17.901Z,42.03
2022-08-19T10:50:14.040Z,41.70
2022-08-19T10:52:48.912Z,41.92
2022-08-19T10:55:42.527Z,41.97
2022-08-19T10:58:16.166Z,41.74
2022-08-19T11:00:44.094Z,41.69
2022-08-19T11:03:11.589Z,41.19
2022-08-19T11:05:40.075Z,40.88
2022-08-19T11:08:22.228Z,40.35
2022-08-19T11:11:00.870Z,40.86
2022-08-19T11:13:36.134Z,40.84
2022-08-19T11:16:26.502Z,40.72
2022-08-19T11:18:58.712Z,40.92
2022-08-19T11:21:33.968Z,40.61
2022-08-19T11:24:07.024Z,40.48
2022-08-19T11:26:36.271Z,40.08
2022-08-19T11:29:04.722Z,40.13
2022-08-19T11:31:35.842Z,40.05
2022-08-19T11:34:07.345Z,40.05
2022-08-19T11:36:38.763Z,39.96
2022-08-19T11:39:08.164Z,40.05
2022-08-19T11:41:35.140Z,40.19
2022-08-19T11:44:04.810Z,40.06
2022-08-19T11:46:32.282Z,39.88
2022-08-19T11:49:01.032Z,39.44
2022-08-19T11:51:30.108Z,39.40
2022-08-19T11:53:59.377Z,39.10
2022-08-19T11:56:28.068Z,38.63
2022-08-19T11:58:57.220Z,38.66
2022-08-19T12:01:26.156Z,39.12
2022-08-19T12:03:56.283Z,38.83
2022-08-19T12:06:34.556Z,38.67
2022-08-19T12:09:06.435Z,38.80
2022-08-19T12:11:34.584Z,38.68
2022-08-19T12:14:01.729Z,38.64
2022-08-19T12:16:31.033Z,38.62
2022-08-19T12:19:04.229Z,38.82
2022-08-19T12:21:35.307Z,38.84
2022-08-19T12:24:05.492Z,38.52
2022-08-19T12:26:33.727Z,38.40
2022-08-19T12:29:23.334Z,38.34
2022-08-19T12:31:52.024Z,38.26
2022-08-19T12:34:20.460Z,37.78
2022-08-19T12:36:49.496Z,37.50
2022-08-19T12:39:16.402Z,37.80
2022-08-19T12:41:54.282Z,37.45
2022-08-19T12:44:29.495Z,37.16
2022-08-19T12:46:59.776Z,36.28
2022-08-19T12:49:54.290Z,36.19
2022-08-19T12:52:17.116Z,36.74
2022-08-19T12:54:54.612Z,37.04
2022-08-19T12:57:31.866Z,36.68
2022-08-19T13:00:21.432Z,36.29
2022-08-19T13:02:52.108Z,36.52
2022-08-19T13:05:23.341Z,36.26
2022-08-19T13:07:56.466Z,36.15
2022-08-19T13:10:28.140Z,36.11
2022-08-19T13:12:55.873Z,36.42
2022-08-19T13:15:24.474Z,36.07
2022-08-19T13:17:54.077Z,35.47
2022-08-19T13:20:22.482Z,35.37
2022-08-19T13:22:49.650Z,35.06
2022-08-19T13:25:17.912Z,35.41
2022-08-19T13:27:44.828Z,34.93
2022-08-19T13:30:33.567Z,34.58
2022-08-19T13:33:12.519Z,34.78
2022-08-19T13:35:50.616Z,35.01
2022-08-19T13:38:21.358Z,34.88
2022-08-19T13:40:52.242Z,34.93
2022-08-19T13:43:24.638Z,34.70
2022-08-19T13:45:56.430Z,34.98
2022-08-19T13:48:25.647Z,34.54
2022-08-19T13:50:52.513Z,34.75
2022-08-19T13:53:19.370Z,34.95
2022-08-19T13:55:46.888Z,34.76
2022-08-19T13:58:14.876Z,34.58
2022-08-19T14:00:45.802Z,34.65
2022-08-19T14:03:12.701Z,33.89
2022-08-19T14:05:40.054Z,33.74
2022-08-19T14:08:07.623Z,33.75
2022-08-19T14:10:34.482Z,33.87
2022-08-19T14:13:03.979Z,33.93
2022-08-19T14:15:31.915Z,34.04
2022-08-19T14:17:59.079Z,33.97
2022-08-19T14:20:26.952Z,33.97
2022-08-19T14:22:55.071Z,34.08
2022-08-19T14:25:27.202Z,33.70
2022-08-19T14:27:55.372Z,33.68
2022-08-19T14:30:31.944Z,33.23
2022-08-19T14:33:01.867Z,33.40
2022-08-19T14:35:30.688Z,33.41
2022-08-19T14:37:58.541Z,33.17
2022-08-19T14:40:29.798Z,33.32
2022-08-19T14:43:04.131Z,33.45
2022-08-19T14:45:36.698Z,33.52
2022-08-19T14:48:08.829Z,33.64
2022-08-19T14:50:45.900Z,33.66
2022-08-19T14:53:13.479Z,33.49
2022-08-19T14:55:45.749Z,33.58
2022-08-19T14:58:28.817Z,33.81
2022-08-19T15:01:00.060Z,33.85
2022-08-19T15:03:28.764Z,33.70
2022-08-19T15:05:57.735Z,34.03
2022-08-19T15:08:25.331Z,34.08
2022-08-19T15:10:53.447Z,33.95
2022-08-19T15:13:20.753Z,33.89
2022-08-19T15:15:48.676Z,33.49
2022-08-19T15:18:15.501Z,33.72
2022-08-19T15:20:43.824Z,32.90
2022-08-19T15:23:18.580Z,32.98
2022-08-19T15:25:46.036Z,33.07
2022-08-19T15:28:13.462Z,33.14
2022-08-19T15:30:40.828Z,32.77
2022-08-19T15:33:08.271Z,32.69
2022-08-19T15:35:35.324Z,32.92
2022-08-19T15:38:02.346Z,33.01
2022-08-19T15:40:29.329Z,33.22
2022-08-19T15:42:56.433Z,33.11
2022-08-19T15:45:32.416Z,33.02
2022-08-19T15:48:02.259Z,33.04
2022-08-19T15:50:33.381Z,33.31
2022-08-19T15:53:05.464Z,33.19
2022-08-19T15:55:36.352Z,33.01
2022-08-19T15:58:30.013Z,32.90
2022-08-19T16:01:24.360Z,32.94
2022-08-19T16:04:15.656Z,33.07
2022-08-19T16:06:56.098Z,33.17
2022-08-19T16:09:28.527Z,32.84
2022-08-19T16:12:04.519Z,32.96
2022-08-19T16:14:34.657Z,33.36
2022-08-19T16:17:01.892Z,33.87
2022-08-19T16:19:28.794Z,34.37
2022-08-19T16:21:56.545Z,35.37
2022-08-19T16:24:27.348Z,36.07
2022-08-19T16:26:55.524Z,36.48
2022-08-19T16:29:34.124Z,36.63
2022-08-19T16:32:10.250Z,36.62
2022-08-19T16:34:41.869Z,36.65
2022-08-19T16:37:10.024Z,36.60
2022-08-19T16:39:38.250Z,36.86
2022-08-19T16:42:07.620Z,36.86
2022-08-19T16:44:38.672Z,36.74
2022-08-19T16:47:05.836Z,37.06
2022-08-19T16:49:53.241Z,37.50
2022-08-19T16:52:20.551Z,37.82
2022-08-19T16:54:47.900Z,38.15
2022-08-19T16:57:16.264Z,38.35
2022-08-19T16:59:48.504Z,38.65
2022-08-19T17:02:20.581Z,38.82
2022-08-19T17:04:57.344Z,39.13
2022-08-19T17:07:33.089Z,39.12
2022-08-19T17:10:04.403Z,39.22
2022-08-19T17:12:32.218Z,39.31
2022-08-19T17:15:04.675Z,39.46
2022-08-19T17:17:31.603Z,39.72
2022-08-19T17:20:00.783Z,39.88
2022-08-19T17:22:27.844Z,40.08
2022-08-19T17:24:56.224Z,40.16
2022-08-19T17:27:31.517Z,40.24
2022-08-19T17:30:02.285Z,40.28
2022-08-19T17:32:34.362Z,40.47
2022-08-19T17:35:03.953Z,40.28
2022-08-19T17:37:31.352Z,40.49
2022-08-19T17:39:58.382Z,40.22
2022-08-19T17:42:25.908Z,40.10
2022-08-19T17:44:52.741Z,40.22
2022-08-19T17:47:20.534Z,40.21
2022-08-19T17:49:47.779Z,40.53
2022-08-19T17:52:14.596Z,40.88
2022-08-19T17:54:41.502Z,41.57
2022-08-19T17:57:09.028Z,41.84
2022-08-19T17:59:36.899Z,42.22
2022-08-19T18:02:07.033Z,42.58
2022-08-19T18:04:38.399Z,42.59
2022-08-19T18:07:05.847Z,42.87
2022-08-19T18:09:41.694Z,43.00
2022-08-19T18:12:13.251Z,42.97
2022-08-19T18:14:41.203Z,43.08
2022-08-19T18:17:11.776Z,43.44
2022-08-19T18:19:43.302Z,43.74
2022-08-19T18:22:19.860Z,44.02
2022-08-19T18:24:46.654Z,44.24
2022-08-19T18:27:14.093Z,44.62
2022-08-19T18:29:41.171Z,44.84
2022-08-19T18:32:14.546Z,45.12
2022-08-19T18:34:43.203Z,45.41
2022-08-19T18:37:11.616Z,45.62
2022-08-19T18:39:57.337Z,45.96
2022-08-19T18:42:43.645Z,46.46
2022-08-19T18:45:29.646Z,46.39
2022-08-19T18:48:26.987Z,46.76
2022-08-19T18:51:00.482Z,47.28
2022-08-19T18:53:31.639Z,47.58
2022-08-19T18:55:59.107Z,47.61
2022-08-19T18:58:32.571Z,48.03
2022-08-19T19:01:25.743Z,47.98
2022-08-19T19:03:54.733Z,48.06
2022-08-19T19:06:29.900Z,48.30
2022-08-19T19:08:57.568Z,48.54
2022-08-19T19:11:33.239Z,48.72
2022-08-19T19:14:03.058Z,48.63
2022-08-19T19:16:31.192Z,48.86
2022-08-19T19:18:58.705Z,48.90
2022-08-19T19:21:26.937Z,49.04
2022-08-19T19:23:55.464Z,49.30
2022-08-19T19:26:22.712Z,49.63
2022-08-19T19:28:50.858Z,49.82
2022-08-19T19:31:22.663Z,50.01
2022-08-19T19:33:49.819Z,50.08
2022-08-19T19:36:17.848Z,50.42
2022-08-19T19:38:48.676Z,50.38
2022-08-19T19:41:23.873Z,50.41
2022-08-19T19:44:30.145Z,50.51
2022-08-19T19:46:47.604Z,50.79
2022-08-19T19:49:14.585Z,51.15
2022-08-19T19:51:43.484Z,51.20
2022-08-19T19:54:13.149Z,51.31
2022-08-19T19:56:44.822Z,51.35
2022-08-19T19:59:12.058Z,51.51
2022-08-19T20:01:40.079Z,51.90
2022-08-19T20:04:16.259Z,52.18
2022-08-19T20:06:45.686Z,52.21
2022-08-19T20:09:19.295Z,52.39
2022-08-19T20:11:55.828Z,52.50
2022-08-19T20:14:32.848Z,52.74
2022-08-19T20:17:00.088Z,52.80
2022-08-19T20:19:33.613Z,53.21
2022-08-19T20:22:00.757Z,53.35
2022-08-19T20:24:34.675Z,53.69
2022-08-19T20:27:03.520Z,53.64
2022-08-19T20:29:39.468Z,53.63
2022-08-19T20:32:10.092Z,53.93
2022-08-19T20:34:38.571Z,53.98
2022-08-19T20:37:08.444Z,53.93
2022-08-19T20:39:35.317Z,54.25
2022-08-19T20:42:03.098Z,54.32
2022-08-19T20:44:30.042Z,54.28
2022-08-19T20:47:00.505Z,54.57
2022-08-19T20:49:30.011Z,54.60
2022-08-19T20:51:57.714Z,54.72
2022-08-19T20:54:25.420Z,54.87
2022-08-19T20:56:53.316Z,54.87
2022-08-19T20:59:21.372Z,54.83
2022-08-19T21:01:51.205Z,55.10
2022-08-19T21:04:20.614Z,54.85
2022-08-19T21:06:49.157Z,55.12
2022-08-19T21:09:16.052Z,54.95
2022-08-19T21:11:43.520Z,55.11
2022-08-19T21:14:10.575Z,55.42
2022-08-19T21:16:37.468Z,55.36
2022-08-19T21:19:04.421Z,55.43
2022-08-19T21:21:32.617Z,55.54
2022-08-19T21:23:59.479Z,55.76
2022-08-19T21:26:27.475Z,55.92
2022-08-19T21:28:54.268Z,56.13
2022-08-19T21:31:21.599Z,56.26
2022-08-19T21:33:48.431Z,56.46
2022-08-19T21:36:15.274Z,56.68
2022-08-19T21:38:42.323Z,56.75
2022-08-19T21:41:09.153Z,56.96
2022-08-19T21:43:37.365Z,56.95
2022-08-19T21:46:05.412Z,57.00
2022-08-19T21:48:32.412Z,57.13
2022-08-19T21:50:59.240Z,57.11
2022-08-19T21:53:31.671Z,57.39
2022-08-19T21:56:05.944Z,57.50
2022-08-19T21:58:33.572Z,57.32
2022-08-19T22:01:05.139Z,57.63
2022-08-19T22:03:36.714Z,57.48
2022-08-19T22:06:04.328Z,57.75
2022-08-19T22:08:31.589Z,57.65
2022-08-19T22:11:01.284Z,57.94
2022-08-19T22:13:35.925Z,58.12
2022-08-19T22:16:07.735Z,58.07
2022-08-19T22:18:34.800Z,58.48
2022-08-19T22:21:04.520Z,58.43
2022-08-19T22:23:33.257Z,58.41
2022-08-19T22:26:00.629Z,58.49
2022-08-19T22:28:28.002Z,58.64
2022-08-19T22:30:55.460Z,58.62
2022-08-19T22:33:25.218Z,58.75
2022-08-19T22:35:52.977Z,58.79
2022-08-19T22:38:19.824Z,58.84
2022-08-19T22:40:50.573Z,58.87
2022-08-19T22:43:25.721Z,59.07
2022-08-19T22:45:55.417Z,59.05
2022-08-19T22:48:26.546Z,59.18
2022-08-19T22:51:13.250Z,59.08
2022-08-19T22:53:45.980Z,59.35
2022-08-19T22:56:15.463Z,59.51
2022-08-19T22:58:43.459Z,59.27
2022-08-19T23:01:24.842Z,59.58
2022-08-19T23:03:59.244Z,59.61
2022-08-19T23:06:33.856Z,59.67
2022-08-19T23:09:06.092Z,59.75
2022-08-19T23:11:41.974Z,59.93
2022-08-19T23:14:11.948Z,59.85
2022-08-19T23:16:41.623Z,60.13
2022-08-19T23:19:09.564Z,60.22
2022-08-19T23:21:41.572Z,60.41
2022-08-19T23:24:10.451Z,60.42
2022-08-19T23:26:37.945Z,60.59
2022-08-19T23:29:24.283Z,60.70
2022-08-19T23:31:51.367Z,60.76
2022-08-19T23:34:18.239Z,60.79
2022-08-19T23:36:45.692Z,61.01
2022-08-19T23:39:12.533Z,60.92
2022-08-19T23:41:39.344Z,61.17
2022-08-19T23:44:06.196Z,61.27
2022-08-19T23:46:54.455Z,61.36
2022-08-19T23:49:24.498Z,61.40
2022-08-19T23:51:53.680Z,61.67
2022-08-19T23:54:21.065Z,61.82
2022-08-19T23:56:47.922Z,61.86
2022-08-19T23:59:15.373Z,62.20
